sensor_id;sensor_type;location;lat;lon;timestamp;P1;durP1;ratioP1;P2;durP2;ratioP2
7432;SDS011;32233;49.500;7.764;2024-03-06T00:01:49;9.50;;;5.87;;
7432;SDS011;32233;49.500;7.764;2024-03-06T00:04:16;8.17;;;5.40;;
7432;SDS011;32233;49.500;7.764;2024-03-06T00:06:45;8.10;;;5.37;;
7432;SDS011;32233;49.500;7.764;2024-03-06T00:09:12;9.73;;;5.63;;
7432;SDS011;32233;49.500;7.764;2024-03-06T00:11:38;11.37;;;5.80;;
7432;SDS011;32233;49.500;7.764;2024-03-06T00:14:06;10.40;;;6.10;;
7432;SDS011;32233;49.500;7.764;2024-03-06T00:16:33;23.60;;;8.43;;
7432;SDS011;32233;49.500;7.764;2024-03-06T00:19:00;50.60;;;9.93;;
7432;SDS011;32233;49.500;7.764;2024-03-06T00:21:27;47.03;;;9.37;;
7432;SDS011;32233;49.500;7.764;2024-03-06T00:23:55;76.17;;;11.53;;
7432;SDS011;32233;49.500;7.764;2024-03-06T00:26:21;68.50;;;10.83;;
7432;SDS011;32233;49.500;7.764;2024-03-06T00:28:48;53.37;;;10.80;;
7432;SDS011;32233;49.500;7.764;2024-03-06T00:31:15;34.23;;;10.63;;
7432;SDS011;32233;49.500;7.764;2024-03-06T00:33:41;61.87;;;12.17;;
7432;SDS011;32233;49.500;7.764;2024-03-06T00:36:08;104.13;;;16.37;;
7432;SDS011;32233;49.500;7.764;2024-03-06T00:38:35;59.20;;;13.50;;
7432;SDS011;32233;49.500;7.764;2024-03-06T00:41:01;71.90;;;13.30;;
7432;SDS011;32233;49.500;7.764;2024-03-06T00:43:29;110.27;;;13.57;;
7432;SDS011;32233;49.500;7.764;2024-03-06T00:45:55;92.20;;;13.47;;
7432;SDS011;32233;49.500;7.764;2024-03-06T00:48:22;78.67;;;13.67;;
7432;SDS011;32233;49.500;7.764;2024-03-06T00:50:49;104.00;;;18.00;;
7432;SDS011;32233;49.500;7.764;2024-03-06T00:53:15;106.73;;;18.10;;
7432;SDS011;32233;49.500;7.764;2024-03-06T00:55:42;68.83;;;13.60;;
7432;SDS011;32233;49.500;7.764;2024-03-06T00:58:09;71.10;;;13.50;;
7432;SDS011;32233;49.500;7.764;2024-03-06T01:00:35;67.10;;;14.70;;
7432;SDS011;32233;49.500;7.764;2024-03-06T01:03:02;86.80;;;14.97;;
7432;SDS011;32233;49.500;7.764;2024-03-06T01:05:29;121.63;;;16.33;;
7432;SDS011;32233;49.500;7.764;2024-03-06T01:07:55;106.20;;;16.03;;
7432;SDS011;32233;49.500;7.764;2024-03-06T01:10:23;126.17;;;17.50;;
7432;SDS011;32233;49.500;7.764;2024-03-06T01:12:50;119.27;;;17.27;;
7432;SDS011;32233;49.500;7.764;2024-03-06T01:15:16;102.07;;;16.37;;
7432;SDS011;32233;49.500;7.764;2024-03-06T01:17:43;246.27;;;23.10;;
7432;SDS011;32233;49.500;7.764;2024-03-06T01:20:10;144.07;;;17.97;;
7432;SDS011;32233;49.500;7.764;2024-03-06T01:22:37;174.87;;;22.73;;
7432;SDS011;32233;49.500;7.764;2024-03-06T01:25:04;128.17;;;19.27;;
7432;SDS011;32233;49.500;7.764;2024-03-06T01:27:31;154.17;;;22.20;;
7432;SDS011;32233;49.500;7.764;2024-03-06T01:29:57;100.93;;;18.23;;
7432;SDS011;32233;49.500;7.764;2024-03-06T01:32:24;139.57;;;19.93;;
7432;SDS011;32233;49.500;7.764;2024-03-06T01:34:51;62.53;;;14.17;;
7432;SDS011;32233;49.500;7.764;2024-03-06T01:37:17;60.57;;;13.97;;
7432;SDS011;32233;49.500;7.764;2024-03-06T01:39:44;64.43;;;14.97;;
7432;SDS011;32233;49.500;7.764;2024-03-06T01:42:10;115.30;;;19.00;;
7432;SDS011;32233;49.500;7.764;2024-03-06T01:44:37;86.93;;;15.67;;
7432;SDS011;32233;49.500;7.764;2024-03-06T01:47:04;60.97;;;15.73;;
7432;SDS011;32233;49.500;7.764;2024-03-06T01:49:33;74.70;;;16.33;;
7432;SDS011;32233;49.500;7.764;2024-03-06T01:52:11;77.77;;;17.70;;
7432;SDS011;32233;49.500;7.764;2024-03-06T01:54:41;231.57;;;29.90;;
7432;SDS011;32233;49.500;7.764;2024-03-06T01:57:08;303.17;;;35.47;;
7432;SDS011;32233;49.500;7.764;2024-03-06T01:59:37;254.87;;;25.47;;
7432;SDS011;32233;49.500;7.764;2024-03-06T02:02:04;277.00;;;28.43;;
7432;SDS011;32233;49.500;7.764;2024-03-06T02:04:31;263.63;;;24.20;;
7432;SDS011;32233;49.500;7.764;2024-03-06T02:06:58;432.23;;;36.03;;
7432;SDS011;32233;49.500;7.764;2024-03-06T02:09:25;281.63;;;25.70;;
7432;SDS011;32233;49.500;7.764;2024-03-06T02:11:52;404.27;;;34.47;;
7432;SDS011;32233;49.500;7.764;2024-03-06T02:14:20;128.00;;;18.70;;
7432;SDS011;32233;49.500;7.764;2024-03-06T02:16:47;105.50;;;16.53;;
7432;SDS011;32233;49.500;7.764;2024-03-06T02:19:14;66.73;;;15.37;;
7432;SDS011;32233;49.500;7.764;2024-03-06T02:21:42;83.53;;;16.53;;
7432;SDS011;32233;49.500;7.764;2024-03-06T02:24:09;82.67;;;14.87;;
7432;SDS011;32233;49.500;7.764;2024-03-06T02:26:38;89.63;;;16.00;;
7432;SDS011;32233;49.500;7.764;2024-03-06T02:29:05;104.33;;;16.90;;
7432;SDS011;32233;49.500;7.764;2024-03-06T02:31:32;110.00;;;16.30;;
7432;SDS011;32233;49.500;7.764;2024-03-06T02:33:59;134.67;;;18.43;;
7432;SDS011;32233;49.500;7.764;2024-03-06T02:36:31;257.13;;;26.77;;
7432;SDS011;32233;49.500;7.764;2024-03-06T02:38:58;323.33;;;31.40;;
7432;SDS011;32233;49.500;7.764;2024-03-06T02:41:25;217.03;;;21.60;;
7432;SDS011;32233;49.500;7.764;2024-03-06T02:43:51;125.80;;;16.53;;
7432;SDS011;32233;49.500;7.764;2024-03-06T02:46:18;136.63;;;17.27;;
7432;SDS011;32233;49.500;7.764;2024-03-06T02:48:45;225.37;;;19.00;;
7432;SDS011;32233;49.500;7.764;2024-03-06T02:51:11;189.80;;;17.53;;
7432;SDS011;32233;49.500;7.764;2024-03-06T02:53:38;235.73;;;20.13;;
7432;SDS011;32233;49.500;7.764;2024-03-06T02:56:04;225.93;;;20.03;;
7432;SDS011;32233;49.500;7.764;2024-03-06T02:58:32;354.50;;;29.03;;
7432;SDS011;32233;49.500;7.764;2024-03-06T03:01:01;412.23;;;29.53;;
7432;SDS011;32233;49.500;7.764;2024-03-06T03:03:28;284.60;;;25.47;;
7432;SDS011;32233;49.500;7.764;2024-03-06T03:05:56;307.67;;;27.37;;
7432;SDS011;32233;49.500;7.764;2024-03-06T03:08:23;268.67;;;21.70;;
7432;SDS011;32233;49.500;7.764;2024-03-06T03:10:49;287.17;;;24.83;;
7432;SDS011;32233;49.500;7.764;2024-03-06T03:13:17;257.83;;;27.17;;
7432;SDS011;32233;49.500;7.764;2024-03-06T03:15:43;140.73;;;17.07;;
7432;SDS011;32233;49.500;7.764;2024-03-06T03:18:10;145.37;;;16.13;;
7432;SDS011;32233;49.500;7.764;2024-03-06T03:20:37;165.13;;;16.80;;
7432;SDS011;32233;49.500;7.764;2024-03-06T03:23:03;178.07;;;17.47;;
7432;SDS011;32233;49.500;7.764;2024-03-06T03:25:30;124.43;;;14.10;;
7432;SDS011;32233;49.500;7.764;2024-03-06T03:27:57;233.97;;;22.23;;
7432;SDS011;32233;49.500;7.764;2024-03-06T03:30:23;211.97;;;19.17;;
7432;SDS011;32233;49.500;7.764;2024-03-06T03:32:50;224.67;;;20.43;;
7432;SDS011;32233;49.500;7.764;2024-03-06T03:35:16;242.20;;;26.37;;
7432;SDS011;32233;49.500;7.764;2024-03-06T03:37:47;201.53;;;20.23;;
7432;SDS011;32233;49.500;7.764;2024-03-06T03:40:13;128.07;;;14.13;;
7432;SDS011;32233;49.500;7.764;2024-03-06T03:42:41;162.70;;;16.07;;
7432;SDS011;32233;49.500;7.764;2024-03-06T03:45:10;142.47;;;16.73;;
7432;SDS011;32233;49.500;7.764;2024-03-06T03:47:36;146.57;;;15.80;;
7432;SDS011;32233;49.500;7.764;2024-03-06T03:50:04;105.03;;;13.73;;
7432;SDS011;32233;49.500;7.764;2024-03-06T03:52:36;109.67;;;13.93;;
7432;SDS011;32233;49.500;7.764;2024-03-06T03:55:08;99.83;;;12.57;;
7432;SDS011;32233;49.500;7.764;2024-03-06T03:57:35;106.77;;;12.73;;
7432;SDS011;32233;49.500;7.764;2024-03-06T04:00:02;69.93;;;13.07;;
7432;SDS011;32233;49.500;7.764;2024-03-06T04:02:37;97.63;;;14.50;;
7432;SDS011;32233;49.500;7.764;2024-03-06T04:05:04;92.57;;;14.07;;
7432;SDS011;32233;49.500;7.764;2024-03-06T04:07:31;56.27;;;11.80;;
7432;SDS011;32233;49.500;7.764;2024-03-06T04:09:58;57.33;;;12.20;;
7432;SDS011;32233;49.500;7.764;2024-03-06T04:12:25;53.97;;;12.77;;
7432;SDS011;32233;49.500;7.764;2024-03-06T04:14:51;59.70;;;12.40;;
7432;SDS011;32233;49.500;7.764;2024-03-06T04:17:18;42.67;;;11.60;;
7432;SDS011;32233;49.500;7.764;2024-03-06T04:19:45;46.07;;;12.37;;
7432;SDS011;32233;49.500;7.764;2024-03-06T04:22:12;33.90;;;10.80;;
7432;SDS011;32233;49.500;7.764;2024-03-06T04:24:43;58.87;;;11.43;;
7432;SDS011;32233;49.500;7.764;2024-03-06T04:27:09;32.80;;;11.00;;
7432;SDS011;32233;49.500;7.764;2024-03-06T04:29:36;29.77;;;10.20;;
7432;SDS011;32233;49.500;7.764;2024-03-06T04:32:03;32.67;;;11.97;;
7432;SDS011;32233;49.500;7.764;2024-03-06T04:34:30;41.43;;;10.80;;
7432;SDS011;32233;49.500;7.764;2024-03-06T04:36:57;27.50;;;11.00;;
7432;SDS011;32233;49.500;7.764;2024-03-06T04:39:24;38.33;;;11.43;;
7432;SDS011;32233;49.500;7.764;2024-03-06T04:41:51;35.70;;;12.00;;
7432;SDS011;32233;49.500;7.764;2024-03-06T04:44:17;35.37;;;12.50;;
7432;SDS011;32233;49.500;7.764;2024-03-06T04:46:44;25.80;;;11.00;;
7432;SDS011;32233;49.500;7.764;2024-03-06T04:49:11;24.87;;;10.97;;
7432;SDS011;32233;49.500;7.764;2024-03-06T04:51:37;28.00;;;11.03;;
7432;SDS011;32233;49.500;7.764;2024-03-06T04:54:04;26.83;;;10.83;;
7432;SDS011;32233;49.500;7.764;2024-03-06T04:56:30;32.63;;;10.87;;
7432;SDS011;32233;49.500;7.764;2024-03-06T04:58:57;41.97;;;11.30;;
7432;SDS011;32233;49.500;7.764;2024-03-06T05:01:29;66.97;;;11.60;;
7432;SDS011;32233;49.500;7.764;2024-03-06T05:03:56;62.17;;;12.27;;
7432;SDS011;32233;49.500;7.764;2024-03-06T05:06:40;69.90;;;12.13;;
7432;SDS011;32233;49.500;7.764;2024-03-06T05:09:25;59.60;;;11.23;;
7432;SDS011;32233;49.500;7.764;2024-03-06T05:12:09;75.73;;;12.07;;
7432;SDS011;32233;49.500;7.764;2024-03-06T05:14:53;109.90;;;13.53;;
7432;SDS011;32233;49.500;7.764;2024-03-06T05:17:38;144.50;;;16.37;;
7432;SDS011;32233;49.500;7.764;2024-03-06T05:20:22;138.27;;;15.40;;
7432;SDS011;32233;49.500;7.764;2024-03-06T05:23:06;198.53;;;16.77;;
7432;SDS011;32233;49.500;7.764;2024-03-06T05:25:50;203.23;;;18.27;;
7432;SDS011;32233;49.500;7.764;2024-03-06T05:28:34;167.43;;;17.23;;
7432;SDS011;32233;49.500;7.764;2024-03-06T05:31:18;176.20;;;17.30;;
7432;SDS011;32233;49.500;7.764;2024-03-06T05:34:03;122.00;;;14.97;;
7432;SDS011;32233;49.500;7.764;2024-03-06T05:36:49;272.30;;;26.07;;
7432;SDS011;32233;49.500;7.764;2024-03-06T05:39:33;151.30;;;18.77;;
7432;SDS011;32233;49.500;7.764;2024-03-06T05:42:17;179.73;;;18.67;;
7432;SDS011;32233;49.500;7.764;2024-03-06T05:45:01;179.07;;;21.00;;
7432;SDS011;32233;49.500;7.764;2024-03-06T05:47:48;128.77;;;14.80;;
7432;SDS011;32233;49.500;7.764;2024-03-06T05:50:33;98.77;;;15.90;;
7432;SDS011;32233;49.500;7.764;2024-03-06T05:53:17;175.77;;;20.03;;
7432;SDS011;32233;49.500;7.764;2024-03-06T05:56:01;175.20;;;21.10;;
7432;SDS011;32233;49.500;7.764;2024-03-06T05:58:46;182.67;;;21.93;;
7432;SDS011;32233;49.500;7.764;2024-03-06T06:01:14;183.00;;;21.30;;
7432;SDS011;32233;49.500;7.764;2024-03-06T06:03:41;182.90;;;20.73;;
7432;SDS011;32233;49.500;7.764;2024-03-06T06:06:08;161.37;;;21.40;;
7432;SDS011;32233;49.500;7.764;2024-03-06T06:08:35;243.90;;;26.67;;
7432;SDS011;32233;49.500;7.764;2024-03-06T06:11:01;128.33;;;17.23;;
7432;SDS011;32233;49.500;7.764;2024-03-06T06:13:29;163.07;;;18.87;;
7432;SDS011;32233;49.500;7.764;2024-03-06T06:15:59;159.93;;;18.77;;
7432;SDS011;32233;49.500;7.764;2024-03-06T06:18:28;112.00;;;17.90;;
7432;SDS011;32233;49.500;7.764;2024-03-06T06:20:55;195.90;;;21.53;;
7432;SDS011;32233;49.500;7.764;2024-03-06T06:23:22;196.80;;;25.80;;
7432;SDS011;32233;49.500;7.764;2024-03-06T06:25:48;105.07;;;16.93;;
7432;SDS011;32233;49.500;7.764;2024-03-06T06:28:15;161.37;;;18.73;;
7432;SDS011;32233;49.500;7.764;2024-03-06T06:30:41;165.53;;;19.90;;
7432;SDS011;32233;49.500;7.764;2024-03-06T06:33:08;238.93;;;23.03;;
7432;SDS011;32233;49.500;7.764;2024-03-06T06:35:35;215.93;;;24.60;;
7432;SDS011;32233;49.500;7.764;2024-03-06T06:38:02;102.50;;;18.83;;
7432;SDS011;32233;49.500;7.764;2024-03-06T06:40:28;102.37;;;18.77;;
7432;SDS011;32233;49.500;7.764;2024-03-06T06:42:55;151.27;;;21.77;;
7432;SDS011;32233;49.500;7.764;2024-03-06T06:45:22;151.87;;;20.73;;
7432;SDS011;32233;49.500;7.764;2024-03-06T06:47:50;147.80;;;19.33;;
7432;SDS011;32233;49.500;7.764;2024-03-06T06:50:18;239.67;;;26.47;;
7432;SDS011;32233;49.500;7.764;2024-03-06T06:52:44;144.13;;;20.63;;
7432;SDS011;32233;49.500;7.764;2024-03-06T06:55:11;176.87;;;23.33;;
7432;SDS011;32233;49.500;7.764;2024-03-06T06:57:38;172.40;;;24.00;;
7432;SDS011;32233;49.500;7.764;2024-03-06T07:00:06;199.13;;;24.93;;
7432;SDS011;32233;49.500;7.764;2024-03-06T07:02:39;114.03;;;18.53;;
7432;SDS011;32233;49.500;7.764;2024-03-06T07:05:08;88.93;;;17.00;;
7432;SDS011;32233;49.500;7.764;2024-03-06T07:07:36;89.07;;;18.43;;
7432;SDS011;32233;49.500;7.764;2024-03-06T07:10:03;74.07;;;16.93;;
7432;SDS011;32233;49.500;7.764;2024-03-06T07:12:30;116.37;;;18.60;;
7432;SDS011;32233;49.500;7.764;2024-03-06T07:14:57;92.50;;;17.23;;
7432;SDS011;32233;49.500;7.764;2024-03-06T07:17:24;95.73;;;16.13;;
7432;SDS011;32233;49.500;7.764;2024-03-06T07:19:51;85.30;;;15.60;;
7432;SDS011;32233;49.500;7.764;2024-03-06T07:22:19;68.37;;;14.30;;
7432;SDS011;32233;49.500;7.764;2024-03-06T07:24:45;72.93;;;13.33;;
7432;SDS011;32233;49.500;7.764;2024-03-06T07:27:12;75.60;;;14.03;;
7432;SDS011;32233;49.500;7.764;2024-03-06T07:29:38;64.20;;;14.23;;
7432;SDS011;32233;49.500;7.764;2024-03-06T07:32:05;76.67;;;15.50;;
7432;SDS011;32233;49.500;7.764;2024-03-06T07:34:32;73.00;;;16.03;;
7432;SDS011;32233;49.500;7.764;2024-03-06T07:36:59;77.83;;;16.37;;
7432;SDS011;32233;49.500;7.764;2024-03-06T07:39:29;88.83;;;18.77;;
7432;SDS011;32233;49.500;7.764;2024-03-06T07:41:57;72.60;;;14.30;;
7432;SDS011;32233;49.500;7.764;2024-03-06T07:44:24;36.03;;;11.10;;
7432;SDS011;32233;49.500;7.764;2024-03-06T07:46:51;24.23;;;9.97;;
7432;SDS011;32233;49.500;7.764;2024-03-06T07:49:19;34.97;;;10.07;;
7432;SDS011;32233;49.500;7.764;2024-03-06T07:51:48;46.20;;;10.43;;
7432;SDS011;32233;49.500;7.764;2024-03-06T07:54:14;43.47;;;10.43;;
7432;SDS011;32233;49.500;7.764;2024-03-06T07:56:41;59.57;;;12.87;;
7432;SDS011;32233;49.500;7.764;2024-03-06T07:59:08;55.03;;;11.67;;
7432;SDS011;32233;49.500;7.764;2024-03-06T08:01:35;78.40;;;12.87;;
7432;SDS011;32233;49.500;7.764;2024-03-06T08:04:01;65.10;;;14.13;;
7432;SDS011;32233;49.500;7.764;2024-03-06T08:06:28;85.53;;;14.07;;
7432;SDS011;32233;49.500;7.764;2024-03-06T08:08:55;58.97;;;14.00;;
7432;SDS011;32233;49.500;7.764;2024-03-06T08:11:26;193.30;;;21.97;;
7432;SDS011;32233;49.500;7.764;2024-03-06T08:13:59;66.13;;;15.60;;
7432;SDS011;32233;49.500;7.764;2024-03-06T08:16:27;69.20;;;15.77;;
7432;SDS011;32233;49.500;7.764;2024-03-06T08:18:55;179.67;;;19.47;;
7432;SDS011;32233;49.500;7.764;2024-03-06T08:21:21;72.00;;;16.20;;
7432;SDS011;32233;49.500;7.764;2024-03-06T08:23:49;168.37;;;20.23;;
7432;SDS011;32233;49.500;7.764;2024-03-06T08:26:16;69.80;;;17.17;;
7432;SDS011;32233;49.500;7.764;2024-03-06T08:28:42;72.47;;;17.07;;
7432;SDS011;32233;49.500;7.764;2024-03-06T08:31:09;50.67;;;16.03;;
7432;SDS011;32233;49.500;7.764;2024-03-06T08:33:36;47.47;;;16.13;;
7432;SDS011;32233;49.500;7.764;2024-03-06T08:36:02;212.03;;;23.93;;
7432;SDS011;32233;49.500;7.764;2024-03-06T08:38:29;170.40;;;23.40;;
7432;SDS011;32233;49.500;7.764;2024-03-06T08:40:56;75.67;;;17.60;;
7432;SDS011;32233;49.500;7.764;2024-03-06T08:43:23;97.37;;;18.40;;
7432;SDS011;32233;49.500;7.764;2024-03-06T08:45:49;133.87;;;23.23;;
7432;SDS011;32233;49.500;7.764;2024-03-06T08:48:16;50.50;;;18.10;;
7432;SDS011;32233;49.500;7.764;2024-03-06T08:50:42;62.07;;;19.53;;
7432;SDS011;32233;49.500;7.764;2024-03-06T08:53:09;42.93;;;18.67;;
7432;SDS011;32233;49.500;7.764;2024-03-06T08:55:36;43.17;;;18.73;;
7432;SDS011;32233;49.500;7.764;2024-03-06T08:58:03;49.17;;;17.77;;
7432;SDS011;32233;49.500;7.764;2024-03-06T09:00:29;35.43;;;17.20;;
7432;SDS011;32233;49.500;7.764;2024-03-06T09:02:56;36.27;;;17.37;;
7432;SDS011;32233;49.500;7.764;2024-03-06T09:05:23;32.13;;;16.37;;
7432;SDS011;32233;49.500;7.764;2024-03-06T09:07:49;30.50;;;17.50;;
7432;SDS011;32233;49.500;7.764;2024-03-06T09:10:16;31.57;;;16.30;;
7432;SDS011;32233;49.500;7.764;2024-03-06T09:12:45;34.37;;;17.93;;
7432;SDS011;32233;49.500;7.764;2024-03-06T09:15:12;30.23;;;16.27;;
7432;SDS011;32233;49.500;7.764;2024-03-06T09:17:38;32.70;;;18.13;;
7432;SDS011;32233;49.500;7.764;2024-03-06T09:20:05;30.53;;;16.60;;
7432;SDS011;32233;49.500;7.764;2024-03-06T09:22:40;35.20;;;17.13;;
7432;SDS011;32233;49.500;7.764;2024-03-06T09:25:08;34.57;;;16.40;;
7432;SDS011;32233;49.500;7.764;2024-03-06T09:27:35;44.93;;;19.20;;
7432;SDS011;32233;49.500;7.764;2024-03-06T09:30:02;45.03;;;19.13;;
7432;SDS011;32233;49.500;7.764;2024-03-06T09:32:29;39.33;;;19.03;;
7432;SDS011;32233;49.500;7.764;2024-03-06T09:34:58;34.97;;;19.63;;
7432;SDS011;32233;49.500;7.764;2024-03-06T09:37:25;45.23;;;21.10;;
7432;SDS011;32233;49.500;7.764;2024-03-06T09:39:51;44.33;;;20.90;;
7432;SDS011;32233;49.500;7.764;2024-03-06T09:42:18;41.50;;;21.90;;
7432;SDS011;32233;49.500;7.764;2024-03-06T09:44:45;38.60;;;20.33;;
7432;SDS011;32233;49.500;7.764;2024-03-06T09:47:14;41.13;;;22.83;;
7432;SDS011;32233;49.500;7.764;2024-03-06T09:49:41;38.07;;;21.17;;
7432;SDS011;32233;49.500;7.764;2024-03-06T09:52:09;37.63;;;21.90;;
7432;SDS011;32233;49.500;7.764;2024-03-06T09:54:37;40.27;;;22.83;;
7432;SDS011;32233;49.500;7.764;2024-03-06T09:57:05;36.23;;;22.33;;
7432;SDS011;32233;49.500;7.764;2024-03-06T09:59:32;35.20;;;21.67;;
7432;SDS011;32233;49.500;7.764;2024-03-06T10:01:59;37.00;;;21.30;;
7432;SDS011;32233;49.500;7.764;2024-03-06T10:04:32;36.60;;;21.80;;
7432;SDS011;32233;49.500;7.764;2024-03-06T10:07:00;29.93;;;19.83;;
7432;SDS011;32233;49.500;7.764;2024-03-06T10:09:29;31.17;;;20.30;;
7432;SDS011;32233;49.500;7.764;2024-03-06T10:11:59;31.13;;;20.60;;
7432;SDS011;32233;49.500;7.764;2024-03-06T10:14:32;28.47;;;18.37;;
7432;SDS011;32233;49.500;7.764;2024-03-06T10:16:59;26.73;;;18.40;;
7432;SDS011;32233;49.500;7.764;2024-03-06T10:19:28;22.20;;;16.57;;
7432;SDS011;32233;49.500;7.764;2024-03-06T10:21:55;23.30;;;16.17;;
7432;SDS011;32233;49.500;7.764;2024-03-06T10:24:24;21.73;;;15.90;;
7432;SDS011;32233;49.500;7.764;2024-03-06T10:26:55;19.70;;;14.73;;
7432;SDS011;32233;49.500;7.764;2024-03-06T10:29:25;21.90;;;14.23;;
7432;SDS011;32233;49.500;7.764;2024-03-06T10:31:54;18.47;;;12.53;;
7432;SDS011;32233;49.500;7.764;2024-03-06T10:34:22;13.43;;;10.63;;
7432;SDS011;32233;49.500;7.764;2024-03-06T10:36:53;12.20;;;10.30;;
7432;SDS011;32233;49.500;7.764;2024-03-06T10:39:24;13.63;;;9.53;;
7432;SDS011;32233;49.500;7.764;2024-03-06T10:41:52;11.67;;;8.57;;
7432;SDS011;32233;49.500;7.764;2024-03-06T10:44:24;13.80;;;10.10;;
7432;SDS011;32233;49.500;7.764;2024-03-06T10:46:57;13.50;;;9.20;;
7432;SDS011;32233;49.500;7.764;2024-03-06T10:49:27;10.63;;;9.30;;
7432;SDS011;32233;49.500;7.764;2024-03-06T10:52:02;12.80;;;9.50;;
7432;SDS011;32233;49.500;7.764;2024-03-06T10:54:34;13.73;;;9.70;;
7432;SDS011;32233;49.500;7.764;2024-03-06T10:57:03;11.17;;;8.80;;
7432;SDS011;32233;49.500;7.764;2024-03-06T10:59:30;10.87;;;8.37;;
7432;SDS011;32233;49.500;7.764;2024-03-06T11:01:58;12.00;;;8.83;;
7432;SDS011;32233;49.500;7.764;2024-03-06T11:04:29;11.33;;;8.50;;
7432;SDS011;32233;49.500;7.764;2024-03-06T11:06:57;14.47;;;9.17;;
7432;SDS011;32233;49.500;7.764;2024-03-06T11:09:35;11.93;;;8.73;;
7432;SDS011;32233;49.500;7.764;2024-03-06T11:12:07;9.73;;;7.97;;
7432;SDS011;32233;49.500;7.764;2024-03-06T11:14:37;10.90;;;8.43;;
7432;SDS011;32233;49.500;7.764;2024-03-06T11:17:07;10.97;;;7.93;;
7432;SDS011;32233;49.500;7.764;2024-03-06T11:20:20;10.77;;;8.03;;
7432;SDS011;32233;49.500;7.764;2024-03-06T11:28:18;9.40;;;6.70;;
7432;SDS011;32233;49.500;7.764;2024-03-06T11:30:51;10.20;;;6.30;;
7432;SDS011;32233;49.500;7.764;2024-03-06T11:33:21;9.10;;;6.50;;
7432;SDS011;32233;49.500;7.764;2024-03-06T11:38:41;10.17;;;7.63;;
7432;SDS011;32233;49.500;7.764;2024-03-06T11:41:08;8.63;;;6.47;;
7432;SDS011;32233;49.500;7.764;2024-03-06T11:43:41;7.97;;;6.37;;
7432;SDS011;32233;49.500;7.764;2024-03-06T11:46:09;8.53;;;5.67;;
7432;SDS011;32233;49.500;7.764;2024-03-06T11:48:36;8.97;;;5.77;;
7432;SDS011;32233;49.500;7.764;2024-03-06T11:51:03;7.60;;;5.93;;
7432;SDS011;32233;49.500;7.764;2024-03-06T11:53:32;8.13;;;4.87;;
7432;SDS011;32233;49.500;7.764;2024-03-06T11:56:00;5.53;;;4.57;;
7432;SDS011;32233;49.500;7.764;2024-03-06T11:58:27;5.67;;;4.30;;
7432;SDS011;32233;49.500;7.764;2024-03-06T12:00:54;4.37;;;3.53;;
7432;SDS011;32233;49.500;7.764;2024-03-06T12:03:21;3.77;;;3.20;;
7432;SDS011;32233;49.500;7.764;2024-03-06T12:05:50;2.67;;;1.90;;
7432;SDS011;32233;49.500;7.764;2024-03-06T12:08:18;4.60;;;2.53;;
7432;SDS011;32233;49.500;7.764;2024-03-06T12:10:46;3.37;;;1.97;;
7432;SDS011;32233;49.500;7.764;2024-03-06T12:13:13;2.97;;;2.10;;
7432;SDS011;32233;49.500;7.764;2024-03-06T12:15:43;2.00;;;1.80;;
7432;SDS011;32233;49.500;7.764;2024-03-06T12:18:11;1.97;;;1.87;;
7432;SDS011;32233;49.500;7.764;2024-03-06T12:20:41;3.40;;;2.00;;
7432;SDS011;32233;49.500;7.764;2024-03-06T12:23:21;2.17;;;1.80;;
7432;SDS011;32233;49.500;7.764;2024-03-06T12:26:05;2.70;;;1.93;;
7432;SDS011;32233;49.500;7.764;2024-03-06T12:28:35;2.40;;;2.20;;
7432;SDS011;32233;49.500;7.764;2024-03-06T12:31:03;3.27;;;2.00;;
7432;SDS011;32233;49.500;7.764;2024-03-06T12:33:30;4.33;;;1.97;;
7432;SDS011;32233;49.500;7.764;2024-03-06T12:36:04;4.07;;;2.17;;
7432;SDS011;32233;49.500;7.764;2024-03-06T12:38:33;2.60;;;1.90;;
7432;SDS011;32233;49.500;7.764;2024-03-06T12:41:00;3.10;;;1.40;;
7432;SDS011;32233;49.500;7.764;2024-03-06T12:43:27;1.47;;;1.20;;
7432;SDS011;32233;49.500;7.764;2024-03-06T12:45:55;1.30;;;0.90;;
7432;SDS011;32233;49.500;7.764;2024-03-06T12:48:25;1.30;;;0.90;;
7432;SDS011;32233;49.500;7.764;2024-03-06T12:50:52;2.90;;;0.97;;
7432;SDS011;32233;49.500;7.764;2024-03-06T12:53:21;1.00;;;0.90;;
7432;SDS011;32233;49.500;7.764;2024-03-06T12:55:48;1.57;;;0.70;;
7432;SDS011;32233;49.500;7.764;2024-03-06T12:58:15;2.27;;;0.90;;
7432;SDS011;32233;49.500;7.764;2024-03-06T13:00:41;2.40;;;0.87;;
7432;SDS011;32233;49.500;7.764;2024-03-06T13:03:08;1.83;;;1.30;;
7432;SDS011;32233;49.500;7.764;2024-03-06T13:05:34;2.47;;;1.30;;
7432;SDS011;32233;49.500;7.764;2024-03-06T13:08:01;2.93;;;1.30;;
7432;SDS011;32233;49.500;7.764;2024-03-06T13:10:28;2.37;;;0.90;;
7432;SDS011;32233;49.500;7.764;2024-03-06T13:12:55;0.90;;;0.80;;
7432;SDS011;32233;49.500;7.764;2024-03-06T13:15:21;2.73;;;1.10;;
7432;SDS011;32233;49.500;7.764;2024-03-06T13:17:48;1.47;;;0.87;;
7432;SDS011;32233;49.500;7.764;2024-03-06T13:20:15;1.43;;;0.80;;
7432;SDS011;32233;49.500;7.764;2024-03-06T13:22:41;2.33;;;1.10;;
7432;SDS011;32233;49.500;7.764;2024-03-06T13:25:10;1.60;;;1.13;;
7432;SDS011;32233;49.500;7.764;2024-03-06T13:27:37;1.30;;;1.00;;
7432;SDS011;32233;49.500;7.764;2024-03-06T13:30:04;1.10;;;1.00;;
7432;SDS011;32233;49.500;7.764;2024-03-06T13:32:34;1.97;;;1.07;;
7432;SDS011;32233;49.500;7.764;2024-03-06T13:35:01;1.90;;;1.10;;
7432;SDS011;32233;49.500;7.764;2024-03-06T13:37:27;1.57;;;0.90;;
7432;SDS011;32233;49.500;7.764;2024-03-06T13:39:54;2.30;;;0.90;;
7432;SDS011;32233;49.500;7.764;2024-03-06T13:42:24;1.10;;;0.90;;
7432;SDS011;32233;49.500;7.764;2024-03-06T13:44:51;2.50;;;1.20;;
7432;SDS011;32233;49.500;7.764;2024-03-06T13:47:18;2.17;;;1.20;;
7432;SDS011;32233;49.500;7.764;2024-03-06T13:49:44;0.87;;;0.80;;
7432;SDS011;32233;49.500;7.764;2024-03-06T13:52:11;2.20;;;1.60;;
7432;SDS011;32233;49.500;7.764;2024-03-06T13:54:41;3.53;;;1.03;;
7432;SDS011;32233;49.500;7.764;2024-03-06T13:57:08;2.27;;;1.63;;
7432;SDS011;32233;49.500;7.764;2024-03-06T13:59:35;2.77;;;1.30;;
7432;SDS011;32233;49.500;7.764;2024-03-06T14:02:04;1.37;;;1.20;;
7432;SDS011;32233;49.500;7.764;2024-03-06T14:04:30;1.33;;;1.20;;
7432;SDS011;32233;49.500;7.764;2024-03-06T14:06:57;1.70;;;1.40;;
7432;SDS011;32233;49.500;7.764;2024-03-06T14:09:25;1.33;;;1.23;;
7432;SDS011;32233;49.500;7.764;2024-03-06T14:11:53;1.57;;;1.47;;
7432;SDS011;32233;49.500;7.764;2024-03-06T14:14:20;2.70;;;1.43;;
7432;SDS011;32233;49.500;7.764;2024-03-06T14:16:47;2.60;;;1.63;;
7432;SDS011;32233;49.500;7.764;2024-03-06T14:19:14;4.70;;;1.63;;
7432;SDS011;32233;49.500;7.764;2024-03-06T14:21:41;5.23;;;2.30;;
7432;SDS011;32233;49.500;7.764;2024-03-06T14:24:07;3.50;;;2.00;;
7432;SDS011;32233;49.500;7.764;2024-03-06T14:26:35;3.90;;;2.13;;
7432;SDS011;32233;49.500;7.764;2024-03-06T14:29:02;3.17;;;2.30;;
7432;SDS011;32233;49.500;7.764;2024-03-06T14:31:29;1.93;;;1.63;;
7432;SDS011;32233;49.500;7.764;2024-03-06T14:33:56;2.73;;;2.13;;
7432;SDS011;32233;49.500;7.764;2024-03-06T14:36:22;2.10;;;1.87;;
7432;SDS011;32233;49.500;7.764;2024-03-06T14:38:51;2.77;;;2.20;;
7432;SDS011;32233;49.500;7.764;2024-03-06T14:41:19;3.53;;;2.23;;
7432;SDS011;32233;49.500;7.764;2024-03-06T14:43:46;3.43;;;1.93;;
7432;SDS011;32233;49.500;7.764;2024-03-06T14:46:13;5.33;;;2.17;;
7432;SDS011;32233;49.500;7.764;2024-03-06T14:48:39;3.33;;;2.17;;
7432;SDS011;32233;49.500;7.764;2024-03-06T14:51:07;2.73;;;2.37;;
7432;SDS011;32233;49.500;7.764;2024-03-06T14:53:33;3.13;;;2.40;;
7432;SDS011;32233;49.500;7.764;2024-03-06T14:56:00;5.10;;;2.67;;